Terminal Aerodrome Forecast
Issued by NWS Twin Cities, MN

Home | Current Version | Previous Version | Graphics & Text | Print | Product List | Glossary On
Versions: 1 2 3 4 5 6 7 8 9 10 11 12 13 14 15 16 17 18 19 20 21 22 23 24
000
FTUS43 KMPX 242054 AAA
TAFMSP
TAF AMD
KMSP 242054Z 2421/2524 12013KT 6SM -SHRA BKN025 OVC035
     FM242300 11013G18KT 5SM -DZ SCT015 OVC025
     FM250600 09014G20KT 6SM BR OVC014
     FM251500 08014G20KT P6SM OVC019
     FM251800 07016G22KT P6SM BKN020 OVC030
     FM252000 06014KT P6SM BKN035=

USA.gov is the U.S. government's official web portal to all federal, state and local government web resources and services.